createdAt,value
2018-05-10T00:01:56.854Z,6.07
2018-05-10T00:04:24.310Z,8.27
2018-05-10T00:06:51.772Z,6.57
2018-05-10T00:09:19.236Z,7.17
2018-05-10T00:11:46.673Z,6.13
2018-05-10T00:14:14.273Z,6.70
2018-05-10T00:16:42.499Z,6.40
2018-05-10T00:19:09.947Z,6.43
2018-05-10T00:21:37.418Z,5.73
2018-05-10T00:24:05.618Z,7.17
2018-05-10T00:26:33.070Z,6.53
2018-05-10T00:29:01.282Z,8.23
2018-05-10T00:31:28.737Z,6.07
2018-05-10T00:33:56.963Z,6.70
2018-05-10T00:36:24.429Z,6.73
2018-05-10T00:38:51.888Z,6.33
2018-05-10T00:41:19.347Z,7.40
2018-05-10T00:43:46.807Z,6.60
2018-05-10T00:46:14.754Z,5.63
2018-05-10T00:48:42.247Z,5.87
2018-05-10T00:51:09.785Z,6.10
2018-05-10T00:53:37.161Z,6.20
2018-05-10T00:56:04.599Z,6.53
2018-05-10T00:58:32.067Z,7.27
2018-05-10T01:00:59.823Z,6.53
2018-05-10T01:03:28.066Z,6.33
2018-05-10T01:05:56.275Z,5.77
2018-05-10T01:08:23.743Z,6.90
2018-05-10T01:10:51.945Z,6.10
2018-05-10T01:13:19.406Z,7.47
2018-05-10T01:15:46.854Z,7.23
2018-05-10T01:18:14.295Z,7.83
2018-05-10T01:20:41.802Z,6.40
2018-05-10T01:23:09.262Z,7.57
2018-05-10T01:25:36.719Z,9.20
2018-05-10T01:28:04.195Z,10.10
2018-05-10T01:30:31.666Z,14.10
2018-05-10T01:32:59.421Z,9.97
2018-05-10T01:35:39.371Z,18.60
2018-05-10T01:38:07.620Z,18.47
2018-05-10T01:40:35.105Z,17.20
2018-05-10T01:43:02.583Z,12.17
2018-05-10T01:45:30.053Z,14.70
2018-05-10T01:47:57.533Z,12.40
2018-05-10T01:50:25.007Z,12.07
2018-05-10T01:52:52.521Z,13.53
2018-05-10T01:55:20.759Z,12.90
2018-05-10T01:57:48.234Z,14.13
2018-05-10T02:00:15.704Z,12.73
2018-05-10T02:02:43.137Z,16.73
2018-05-10T02:05:11.367Z,13.37
2018-05-10T02:07:38.846Z,14.30
2018-05-10T02:10:06.330Z,12.47
2018-05-10T02:12:33.794Z,12.27
2018-05-10T02:15:05.681Z,12.43
2018-05-10T02:17:33.133Z,10.87
2018-05-10T02:20:00.602Z,11.57
2018-05-10T02:22:28.043Z,12.90
2018-05-10T02:24:55.521Z,10.57
2018-05-10T02:27:23.767Z,10.17
2018-05-10T02:29:51.396Z,12.73
2018-05-10T02:32:18.847Z,10.40
2018-05-10T02:34:46.314Z,11.10
2018-05-10T02:37:13.788Z,10.20
2018-05-10T02:39:41.258Z,12.27
2018-05-10T02:42:08.715Z,11.77
2018-05-10T02:44:36.186Z,11.80
2018-05-10T02:47:03.667Z,11.93
2018-05-10T02:49:31.123Z,11.83
2018-05-10T02:51:59.167Z,12.30
2018-05-10T02:54:26.614Z,12.93
2018-05-10T02:56:54.559Z,11.47
2018-05-10T02:59:22.018Z,12.87
2018-05-10T03:01:50.267Z,12.60
2018-05-10T03:04:17.726Z,13.23
2018-05-10T03:06:46.079Z,12.60
2018-05-10T03:09:14.312Z,11.93
2018-05-10T03:11:41.787Z,14.23
2018-05-10T03:14:09.239Z,14.20
2018-05-10T03:16:37.498Z,13.50
2018-05-10T03:19:04.957Z,13.87
2018-05-10T03:21:32.424Z,14.53
2018-05-10T03:23:59.903Z,14.20
2018-05-10T03:26:28.130Z,13.13
2018-05-10T03:28:57.239Z,14.77
2018-05-10T03:31:25.447Z,14.70
2018-05-10T03:33:53.710Z,14.53
2018-05-10T03:36:21.230Z,14.90
2018-05-10T03:38:48.707Z,14.97
2018-05-10T03:41:16.162Z,14.40
2018-05-10T03:43:44.509Z,14.50
2018-05-10T03:46:11.985Z,15.40
2018-05-10T03:48:39.453Z,13.20
2018-05-10T03:51:06.927Z,16.50
2018-05-10T03:53:34.387Z,14.60
2018-05-10T03:59:04.429Z,14.23
2018-05-10T04:01:31.891Z,14.90
2018-05-10T04:52:15.564Z,13.07
2018-05-10T04:54:43.261Z,13.20
2018-05-10T04:57:10.651Z,13.40
2018-05-10T04:59:38.354Z,13.30
2018-05-10T05:02:05.789Z,11.97
2018-05-10T05:04:33.290Z,13.53
2018-05-10T05:07:00.768Z,13.10
2018-05-10T05:09:28.242Z,12.87
2018-05-10T05:11:55.721Z,11.57
2018-05-10T05:14:23.952Z,12.03
2018-05-10T05:16:52.175Z,12.43
2018-05-10T05:19:19.929Z,12.10
2018-05-10T05:21:48.150Z,13.23
2018-05-10T05:24:15.626Z,13.67
2018-05-10T05:26:43.125Z,12.20
2018-05-10T05:29:10.651Z,12.40
2018-05-10T05:31:38.136Z,15.17
2018-05-10T05:34:05.667Z,15.00
2018-05-10T05:36:33.230Z,16.57
2018-05-10T05:39:03.015Z,16.00
2018-05-10T05:41:30.503Z,20.50
2018-05-10T05:43:57.970Z,20.40
2018-05-10T05:46:25.445Z,22.27
2018-05-10T05:48:52.928Z,25.03
2018-05-10T05:51:21.042Z,24.47
2018-05-10T05:53:48.527Z,26.63
2018-05-10T05:56:16.356Z,31.20
2018-05-10T05:59:08.829Z,26.90
2018-05-10T06:01:36.363Z,32.33
2018-05-10T06:04:03.867Z,29.80
2018-05-10T06:06:31.410Z,30.93
2018-05-10T06:08:58.923Z,37.40
2018-05-10T06:11:26.409Z,30.60
2018-05-10T06:13:53.871Z,28.80
2018-05-10T06:16:21.356Z,32.07
2018-05-10T06:18:48.847Z,37.67
2018-05-10T06:23:58.174Z,40.87
2018-05-10T06:32:13.775Z,43.03
2018-05-10T06:34:41.308Z,44.80
2018-05-10T06:40:13.518Z,47.50
2018-05-10T06:42:41.025Z,51.70
2018-05-10T06:45:12.495Z,47.77
2018-05-10T06:47:39.971Z,59.00
2018-05-10T06:50:08.030Z,52.63
2018-05-10T06:52:35.515Z,57.47
2018-05-10T06:55:03.107Z,55.63
2018-05-10T07:00:26.538Z,57.40
2018-05-10T07:02:54.052Z,57.37
2018-05-10T07:05:22.267Z,63.57
2018-05-10T07:07:49.744Z,59.37
2018-05-10T07:10:17.206Z,55.50
2018-05-10T07:12:44.698Z,58.83
2018-05-10T07:15:13.519Z,53.23
2018-05-10T07:17:41.037Z,50.63
2018-05-10T07:20:09.313Z,48.60
2018-05-10T07:22:37.553Z,45.00
2018-05-10T07:25:05.021Z,44.80
2018-05-10T07:27:32.460Z,44.63
2018-05-10T07:29:59.944Z,45.47
2018-05-10T07:32:27.395Z,42.40
2018-05-10T07:34:54.873Z,44.87
2018-05-10T07:37:23.082Z,45.23
2018-05-10T07:39:50.586Z,45.70
2018-05-10T07:42:18.068Z,47.97
2018-05-10T07:44:46.280Z,53.27
2018-05-10T07:47:13.797Z,53.07
2018-05-10T07:49:41.239Z,55.90
2018-05-10T07:52:09.498Z,53.47
2018-05-10T07:54:36.980Z,49.97
2018-05-10T07:57:05.205Z,55.07
2018-05-10T07:59:32.673Z,51.17
2018-05-10T08:02:00.156Z,53.83
2018-05-10T08:04:27.612Z,54.87
2018-05-10T08:06:55.853Z,52.70
2018-05-10T08:09:23.315Z,51.40
2018-05-10T08:11:51.665Z,48.53
2018-05-10T08:14:19.142Z,49.23
2018-05-10T08:16:46.612Z,50.50
2018-05-10T08:19:14.073Z,46.80
2018-05-10T08:21:41.566Z,46.57
2018-05-10T08:24:09.035Z,46.00
2018-05-10T08:26:37.271Z,44.43
2018-05-10T08:29:05.501Z,46.00
2018-05-10T08:31:32.975Z,45.90
2018-05-10T08:34:00.448Z,43.70
2018-05-10T08:36:27.952Z,43.83
2018-05-10T08:38:55.378Z,47.10
2018-05-10T08:41:23.609Z,41.93
2018-05-10T08:43:51.855Z,45.20
2018-05-10T08:46:19.315Z,43.20
2018-05-10T08:48:46.798Z,43.27
2018-05-10T08:51:14.240Z,44.50
2018-05-10T08:53:41.716Z,42.57
2018-05-10T08:56:10.549Z,44.17
2018-05-10T08:58:38.009Z,44.47
2018-05-10T09:01:05.677Z,43.83
2018-05-10T09:03:34.201Z,44.83
2018-05-10T09:06:01.725Z,44.93
2018-05-10T09:08:29.289Z,46.27
2018-05-10T09:10:58.282Z,43.60
2018-05-10T09:13:25.800Z,41.63
2018-05-10T09:15:53.303Z,42.97
2018-05-10T09:18:20.773Z,46.97
2018-05-10T09:20:48.251Z,43.87
2018-05-10T09:23:15.735Z,43.17
2018-05-10T09:25:43.200Z,41.70
2018-05-10T09:28:10.690Z,41.57
2018-05-10T09:30:38.187Z,41.23
2018-05-10T09:33:05.643Z,33.67
2018-05-10T09:38:07.610Z,28.43
2018-05-10T09:40:35.842Z,25.90
2018-05-10T09:43:03.922Z,24.23
2018-05-10T09:45:31.396Z,22.37
2018-05-10T09:47:58.898Z,22.70
2018-05-10T09:50:26.395Z,22.90
2018-05-10T09:52:54.673Z,23.43
2018-05-10T09:55:22.119Z,21.57
2018-05-10T09:57:49.639Z,19.60
2018-05-10T10:00:23.511Z,15.10
2018-05-10T10:02:51.085Z,11.60
2018-05-10T10:05:18.551Z,11.27
2018-05-10T10:10:19.968Z,7.63
2018-05-10T10:12:47.477Z,8.00
2018-05-10T10:15:14.918Z,8.30
2018-05-10T10:17:42.537Z,9.00
2018-05-10T10:20:10.720Z,8.80
2018-05-10T10:22:38.993Z,8.67
2018-05-10T10:25:06.521Z,8.00
2018-05-10T10:27:34.012Z,10.07
2018-05-10T10:30:01.467Z,9.67
2018-05-10T10:32:29.010Z,23.50
2018-05-10T10:34:56.504Z,24.13
2018-05-10T10:37:24.718Z,28.40
2018-05-10T10:39:52.206Z,31.10
2018-05-10T10:42:19.681Z,30.27
2018-05-10T10:44:47.158Z,31.57
2018-05-10T10:47:14.632Z,28.70
2018-05-10T10:49:42.512Z,28.67
2018-05-10T10:52:09.997Z,26.43
2018-05-10T10:54:37.537Z,25.57
2018-05-10T10:57:04.982Z,25.63
2018-05-10T10:59:32.484Z,25.70
2018-05-10T11:02:00.785Z,22.73
2018-05-10T11:04:28.206Z,25.63
2018-05-10T11:06:55.634Z,25.63
2018-05-10T11:09:23.879Z,24.37
2018-05-10T11:11:51.346Z,26.00
2018-05-10T11:14:18.807Z,26.30
2018-05-10T11:16:46.726Z,26.47
2018-05-10T11:19:14.168Z,26.20
2018-05-10T11:21:41.660Z,25.80
2018-05-10T11:24:09.615Z,25.97
2018-05-10T11:26:37.084Z,27.63
2018-05-10T11:29:04.539Z,22.93
2018-05-10T11:31:32.803Z,23.27
2018-05-10T11:34:00.278Z,24.20
2018-05-10T11:36:27.746Z,25.27
2018-05-10T11:38:55.290Z,24.67
2018-05-10T11:41:22.778Z,25.80
2018-05-10T11:46:32.964Z,23.40
2018-05-10T11:49:00.431Z,25.00
2018-05-10T11:51:27.921Z,24.63
2018-05-10T11:53:55.399Z,23.27
2018-05-10T11:56:22.879Z,23.20
2018-05-10T11:58:50.358Z,25.00
2018-05-10T12:01:18.292Z,24.03
2018-05-10T12:03:46.632Z,24.33
2018-05-10T12:09:06.193Z,24.27
2018-05-10T12:11:33.677Z,23.90
2018-05-10T12:14:01.923Z,23.07
2018-05-10T12:17:00.711Z,23.60
2018-05-10T12:19:28.231Z,24.47
2018-05-10T12:21:55.686Z,20.27
2018-05-10T12:24:27.222Z,25.70
2018-05-10T12:26:54.706Z,23.27
2018-05-10T12:29:28.989Z,21.67
2018-05-10T12:31:56.548Z,22.10
2018-05-10T12:34:24.147Z,20.13
2018-05-10T12:36:51.625Z,18.90
2018-05-10T12:39:19.857Z,18.73
2018-05-10T12:41:47.874Z,19.17
2018-05-10T12:44:15.361Z,18.30
2018-05-10T12:46:43.477Z,17.63
2018-05-10T12:49:10.939Z,18.60
2018-05-10T12:54:18.170Z,20.57
2018-05-10T12:56:50.016Z,21.27
2018-05-10T13:05:56.083Z,28.60
2018-05-10T13:08:28.788Z,27.67
2018-05-10T13:19:42.915Z,31.63
2018-05-10T13:22:11.362Z,29.97
2018-05-10T13:24:53.021Z,31.23
2018-05-10T13:27:20.535Z,29.40
2018-05-10T13:29:48.055Z,29.10
2018-05-10T13:32:17.146Z,28.10
2018-05-10T13:34:44.682Z,29.80
2018-05-10T13:37:12.164Z,29.53
2018-05-10T13:39:39.641Z,27.10
2018-05-10T13:42:07.176Z,27.40
2018-05-10T13:44:34.631Z,25.83
2018-05-10T13:47:02.232Z,28.90
2018-05-10T13:49:29.586Z,26.60
2018-05-10T13:51:57.111Z,27.70
2018-05-10T13:54:24.599Z,24.50
2018-05-10T14:17:57.797Z,18.77
2018-05-10T14:20:25.268Z,17.40
2018-05-10T14:22:56.667Z,17.93
2018-05-10T14:25:24.592Z,13.83
2018-05-10T14:27:58.097Z,14.10
2018-05-10T14:30:25.713Z,12.77
2018-05-10T14:32:53.245Z,14.90
2018-05-10T14:35:20.737Z,10.20
2018-05-10T14:37:48.232Z,7.47
2018-05-10T14:40:15.703Z,8.87
2018-05-10T14:42:43.196Z,8.83
2018-05-10T14:45:10.683Z,7.73
2018-05-10T14:47:38.173Z,9.70
2018-05-10T14:50:05.659Z,4.30
2018-05-10T14:52:33.155Z,6.00
2018-05-10T14:55:01.412Z,4.93
2018-05-10T14:57:28.855Z,4.27
2018-05-10T14:59:56.500Z,5.33
2018-05-10T15:02:24.020Z,7.73
2018-05-10T15:17:30.316Z,9.70
2018-05-10T15:19:57.854Z,6.50
2018-05-10T15:22:25.946Z,7.40
2018-05-10T15:42:26.327Z,10.20
2018-05-10T15:44:53.933Z,7.33
2018-05-10T15:47:35.758Z,7.23
2018-05-10T15:56:21.060Z,11.03
2018-05-10T15:59:02.391Z,7.30
2018-05-10T16:08:04.106Z,11.80
2018-05-10T16:59:00.894Z,13.80
2018-05-10T17:01:28.397Z,19.20
2018-05-10T17:03:55.866Z,20.90
2018-05-10T17:06:23.322Z,19.33
2018-05-10T17:08:50.953Z,18.00
2018-05-10T17:11:18.431Z,18.13
2018-05-10T17:13:46.144Z,19.30
2018-05-10T17:16:13.599Z,19.90
2018-05-10T17:18:41.068Z,20.30
2018-05-10T17:21:08.671Z,29.10
2018-05-10T17:23:36.147Z,21.50
2018-05-10T17:26:03.672Z,20.87
2018-05-10T17:28:36.010Z,21.77
2018-05-10T17:31:03.545Z,17.97
2018-05-10T17:33:30.975Z,19.20
2018-05-10T17:35:58.515Z,21.57
2018-05-10T17:38:26.998Z,19.60
2018-05-10T17:40:54.470Z,21.23
2018-05-10T17:43:21.982Z,21.53
2018-05-10T17:45:49.452Z,24.13
2018-05-10T17:48:17.023Z,21.50
2018-05-10T17:50:44.484Z,23.33
2018-05-10T17:53:11.979Z,22.90
2018-05-10T17:55:39.462Z,19.10
2018-05-10T17:58:07.093Z,20.03
2018-05-10T18:00:34.592Z,23.37
2018-05-10T18:03:02.082Z,22.70
2018-05-10T18:05:29.551Z,18.97
2018-05-10T18:07:57.029Z,21.63
2018-05-10T18:10:24.513Z,20.73
2018-05-10T18:12:52.002Z,21.10
2018-05-10T18:15:19.479Z,21.53
2018-05-10T18:17:46.936Z,23.30
2018-05-10T18:20:14.419Z,18.57
2018-05-10T18:22:41.923Z,20.17
2018-05-10T18:25:09.890Z,17.23
2018-05-10T18:27:37.441Z,18.67
2018-05-10T18:30:04.936Z,17.87
2018-05-10T18:45:27.436Z,19.10
2018-05-10T18:47:54.945Z,21.40
2018-05-10T18:50:22.431Z,20.37
2018-05-10T18:52:49.896Z,20.03
2018-05-10T18:55:17.393Z,23.00
2018-05-10T18:57:45.619Z,21.83
2018-05-10T19:00:13.521Z,23.07
2018-05-10T19:02:40.993Z,20.60
2018-05-10T19:05:08.527Z,21.60
2018-05-10T19:07:35.987Z,23.70
2018-05-10T19:10:04.252Z,20.60
2018-05-10T19:12:31.723Z,24.00
2018-05-10T19:14:59.301Z,21.37
2018-05-10T19:17:26.785Z,23.20
2018-05-10T19:19:54.260Z,21.37
2018-05-10T19:22:22.289Z,19.60
2018-05-10T19:24:54.687Z,27.40
2018-05-10T19:27:22.133Z,22.97
2018-05-10T19:29:50.444Z,21.60
2018-05-10T19:32:18.672Z,20.57
2018-05-10T19:34:46.190Z,20.17
2018-05-10T19:37:14.276Z,23.07
2018-05-10T19:39:41.773Z,21.97
2018-05-10T19:42:09.935Z,21.20
2018-05-10T19:44:37.403Z,23.10
2018-05-10T19:47:04.883Z,22.43
2018-05-10T19:49:32.379Z,29.97
2018-05-10T20:00:45.224Z,17.57
2018-05-10T20:03:12.767Z,16.27
2018-05-10T20:05:41.021Z,17.13
2018-05-10T20:08:08.540Z,16.47
2018-05-10T20:10:36.881Z,16.93
2018-05-10T20:13:05.147Z,21.70
2018-05-10T20:15:32.591Z,21.70
2018-05-10T20:18:00.856Z,24.83
2018-05-10T20:20:29.102Z,16.87
2018-05-10T20:22:56.609Z,20.50
2018-05-10T20:25:24.064Z,18.10
2018-05-10T20:27:51.657Z,16.70
2018-05-10T20:30:19.727Z,15.27
2018-05-10T20:32:52.642Z,16.33
2018-05-10T20:35:32.634Z,16.73
2018-05-10T20:38:00.218Z,15.70
2018-05-10T20:40:27.692Z,15.47
2018-05-10T20:42:55.198Z,15.97
2018-05-10T20:45:22.721Z,17.37
2018-05-10T20:47:50.241Z,14.37
2018-05-10T20:50:17.728Z,20.33
2018-05-10T20:52:45.992Z,14.50
2018-05-10T20:55:13.524Z,14.63
2018-05-10T20:57:40.933Z,15.03
2018-05-10T21:00:08.999Z,14.47
2018-05-10T21:02:36.709Z,14.53
2018-05-10T21:05:04.152Z,16.90
2018-05-10T21:07:31.642Z,12.87
2018-05-10T21:09:59.213Z,18.90
2018-05-10T21:12:45.225Z,16.33
2018-05-10T21:15:12.716Z,16.00
2018-05-10T21:17:40.209Z,15.83
2018-05-10T21:20:08.473Z,15.90
2018-05-10T21:22:35.933Z,14.50
2018-05-10T21:25:07.360Z,13.87
2018-05-10T21:27:35.594Z,17.47
2018-05-10T21:30:03.170Z,15.63
2018-05-10T21:32:30.635Z,12.53
2018-05-10T21:34:58.487Z,12.77
2018-05-10T21:49:44.885Z,11.90
2018-05-10T22:01:29.501Z,17.43
2018-05-10T22:03:57.754Z,16.83
2018-05-10T22:06:25.205Z,13.33
2018-05-10T22:08:53.267Z,14.43
2018-05-10T22:11:20.734Z,14.17
2018-05-10T22:13:48.206Z,17.60
2018-05-10T22:16:15.690Z,17.17
2018-05-10T22:18:43.183Z,16.97
2018-05-10T22:21:10.632Z,15.60
2018-05-10T22:23:38.108Z,12.57
2018-05-10T22:26:05.608Z,15.83
2018-05-10T22:28:34.077Z,14.63
2018-05-10T22:31:01.523Z,15.17
2018-05-10T22:33:30.424Z,14.00
2018-05-10T23:00:02.858Z,13.77
2018-05-10T23:02:30.425Z,20.73
2018-05-10T23:08:01.501Z,21.50
2018-05-10T23:10:28.936Z,16.33
2018-05-10T23:12:56.406Z,19.80
2018-05-10T23:15:23.887Z,14.50
2018-05-10T23:17:51.363Z,15.93
2018-05-10T23:20:19.601Z,17.50
2018-05-10T23:22:47.066Z,16.70
2018-05-10T23:25:14.538Z,18.57
2018-05-10T23:27:42.013Z,16.70
2018-05-10T23:30:09.593Z,19.10
2018-05-10T23:32:37.063Z,18.87
2018-05-10T23:35:04.525Z,15.27
2018-05-10T23:37:31.989Z,15.97
2018-05-10T23:39:59.434Z,17.77
2018-05-10T23:42:27.697Z,15.53
2018-05-10T23:44:55.189Z,17.73
2018-05-10T23:47:22.651Z,16.87
2018-05-10T23:49:50.131Z,18.13
2018-05-10T23:52:17.568Z,19.57
2018-05-10T23:54:45.076Z,16.63
2018-05-10T23:57:13.374Z,17.07
2018-05-10T23:59:40.838Z,18.13
